Hite, UT

2:52 PM MDT on September 02, 2014 (GMT -0600)
Page Municipal | Change Station
CLOSE
Current Station
Airport
Location: Page,
Elevation: 4308 ft
Nearby Weather Stations

Elev 4308 ft 36.92 °N, 111.45 °W | Updated 59 minutes ago

Clear
Clear
94 °F
Feels Like 94 °F
N
9
Wind Variable Wind from NE

Today
High -- | Low -- °F
--% Chance of Precip.
Yesterday
High -- | Low -- °F
Precip. -- in
6:53 AM 7:50 PM
First Quarter, 55% visible
Pressure 29.78 in
Visibility 10.0 miles
Clouds Clear
Dew Point 38 °F
Humidity 14%
Rainfall 0.00 in
Snow Depth Not available.
UV 10 out of 12
Pollen 8.70 out of 12
Air Quality Not available.
Flu Activity Not available.
METAR KPGA 021953Z AUTO 05008KT 10SM CLR 34/03 A3000 RMK AO2 SLP082 T03440033

More Conditions Fewer Conditions

Pressure 29.78 in
Visibility 10.0 miles
Clouds Clear
Dew Point 38 °F
Humidity 14%
Rainfall 0.00 in
Snow Depth Not available.
UV 10 out of 12
Pollen 8.70 out of 12
Air Quality Not available.
Flu Activity Not available.
METAR KPGA 021953Z AUTO 05008KT 10SM CLR 34/03 A3000 RMK AO2 SLP082 T03440033

More Conditions Fewer Conditions

10-Day Weather Forecast

Almanac

Astronomy

Sep. 02, 2014 Rise Set
Actual Time 6:53 AM MDT 7:50 PM MDT
Civil Twilight 6:27 AM MDT 8:17 PM MDT
Nautical Twilight 5:55 AM MDT 8:48 PM MDT
Astronomical Twilight 5:22 AM MDT 9:21 PM MDT
Moon 2:33 PM MDT 12:03 AM MDT
Length of Visible Light 13h 49m
Length of Day
12h 56m
Tomorrow will be 2m 21s shorter.
First Quarter, 55% of the Moon is Illuminated
Today
First Quarter
Sep 8
Full
Sep 15
Last Quarter
Sep 24
New
Oct 1
First Quarter

Today's Extremes

State Highs State Lows

Community

WunderPhotos

Upload Photos

1,749,763 photos uploaded!

WunderBlogs® & News

Nearby

Snow Depth

Station Depth Elevation
Agua Canyon 3 in 8900 ft
Gooseberry R.S. 0 in 7920 ft
Long Valley Jct 0 in 7360 ft
Midway Valley 3 in 9800 ft
Cascade Mountain 0 in 7768 ft

Earthquake Activity

City Distance Mag. Time & Date
No recent earthquake activity has been reported nearby.
Minimum magnitude displayed is 2.5.

Coastal Water Temperatures

Place Temperature
No Stations Reporting

Nearby Weather Stations